sensor_id;sensor_type;location;lat;lon;timestamp;temperature;humidity
51559;DHT22;61650;48.882;2.092;2022-08-01T00:00:21;19.50;69.60
51559;DHT22;61650;48.882;2.092;2022-08-01T00:02:46;19.40;69.70
51559;DHT22;61650;48.882;2.092;2022-08-01T00:05:12;19.30;69.70
51559;DHT22;61650;48.882;2.092;2022-08-01T00:07:38;19.30;69.90
51559;DHT22;61650;48.882;2.092;2022-08-01T00:10:06;19.30;69.90
51559;DHT22;61650;48.882;2.092;2022-08-01T00:12:32;19.30;69.80
51559;DHT22;61650;48.882;2.092;2022-08-01T00:14:57;19.30;70.00
51559;DHT22;61650;48.882;2.092;2022-08-01T00:17:23;19.20;70.40
51559;DHT22;61650;48.882;2.092;2022-08-01T00:19:48;19.10;70.70
51559;DHT22;61650;48.882;2.092;2022-08-01T00:22:14;19.10;70.60
51559;DHT22;61650;48.882;2.092;2022-08-01T00:24:40;19.00;71.30
51559;DHT22;61650;48.882;2.092;2022-08-01T00:27:05;18.90;71.60
51559;DHT22;61650;48.882;2.092;2022-08-01T00:29:31;18.90;71.60
51559;DHT22;61650;48.882;2.092;2022-08-01T00:31:57;18.90;71.60
51559;DHT22;61650;48.882;2.092;2022-08-01T00:34:22;18.90;71.50
51559;DHT22;61650;48.882;2.092;2022-08-01T00:36:48;18.90;71.70
51559;DHT22;61650;48.882;2.092;2022-08-01T00:39:13;18.80;72.10
51559;DHT22;61650;48.882;2.092;2022-08-01T00:41:39;18.70;72.60
51559;DHT22;61650;48.882;2.092;2022-08-01T00:44:05;18.60;72.70
51559;DHT22;61650;48.882;2.092;2022-08-01T00:46:31;18.50;73.00
51559;DHT22;61650;48.882;2.092;2022-08-01T00:48:57;18.50;73.60
51559;DHT22;61650;48.882;2.092;2022-08-01T00:51:23;18.50;73.60
51559;DHT22;61650;48.882;2.092;2022-08-01T00:53:50;18.40;73.40
51559;DHT22;61650;48.882;2.092;2022-08-01T00:56:17;18.40;73.70
51559;DHT22;61650;48.882;2.092;2022-08-01T00:58:42;18.30;74.10
51559;DHT22;61650;48.882;2.092;2022-08-01T01:01:09;18.30;73.60
51559;DHT22;61650;48.882;2.092;2022-08-01T01:03:35;18.30;73.70
51559;DHT22;61650;48.882;2.092;2022-08-01T01:06:06;18.20;74.00
51559;DHT22;61650;48.882;2.092;2022-08-01T01:08:41;18.20;74.60
51559;DHT22;61650;48.882;2.092;2022-08-01T01:11:25;18.20;74.20
51559;DHT22;61650;48.882;2.092;2022-08-01T01:13:56;18.20;74.80
51559;DHT22;61650;48.882;2.092;2022-08-01T01:16:23;18.20;74.90
51559;DHT22;61650;48.882;2.092;2022-08-01T01:18:59;18.20;74.20
51559;DHT22;61650;48.882;2.092;2022-08-01T01:21:35;18.20;74.60
51559;DHT22;61650;48.882;2.092;2022-08-01T01:24:31;18.20;75.00
51559;DHT22;61650;48.882;2.092;2022-08-01T01:29:33;18.10;75.00
51559;DHT22;61650;48.882;2.092;2022-08-01T01:32:13;18.20;74.90
51559;DHT22;61650;48.882;2.092;2022-08-01T01:34:43;18.20;75.20
51559;DHT22;61650;48.882;2.092;2022-08-01T01:37:14;18.20;74.90
51559;DHT22;61650;48.882;2.092;2022-08-01T01:39:41;18.30;74.30
51559;DHT22;61650;48.882;2.092;2022-08-01T01:42:08;18.40;74.40
51559;DHT22;61650;48.882;2.092;2022-08-01T01:44:34;18.30;74.80
51559;DHT22;61650;48.882;2.092;2022-08-01T01:47:01;18.20;75.20
51559;DHT22;61650;48.882;2.092;2022-08-01T01:49:28;18.20;74.70
51559;DHT22;61650;48.882;2.092;2022-08-01T01:51:56;18.30;75.20
51559;DHT22;61650;48.882;2.092;2022-08-01T01:54:23;18.30;74.70
51559;DHT22;61650;48.882;2.092;2022-08-01T01:56:50;18.40;74.30
51559;DHT22;61650;48.882;2.092;2022-08-01T01:59:21;18.40;74.20
51559;DHT22;61650;48.882;2.092;2022-08-01T02:01:51;18.60;73.90
51559;DHT22;61650;48.882;2.092;2022-08-01T02:04:18;18.60;74.10
51559;DHT22;61650;48.882;2.092;2022-08-01T02:06:46;18.50;74.10
51559;DHT22;61650;48.882;2.092;2022-08-01T02:09:15;18.60;74.10
51559;DHT22;61650;48.882;2.092;2022-08-01T02:11:42;18.50;74.10
51559;DHT22;61650;48.882;2.092;2022-08-01T02:14:10;18.50;74.00
51559;DHT22;61650;48.882;2.092;2022-08-01T02:16:37;18.60;73.80
51559;DHT22;61650;48.882;2.092;2022-08-01T02:19:05;18.70;73.70
51559;DHT22;61650;48.882;2.092;2022-08-01T02:21:36;18.70;73.60
51559;DHT22;61650;48.882;2.092;2022-08-01T02:24:13;18.70;73.60
51559;DHT22;61650;48.882;2.092;2022-08-01T02:26:43;18.70;73.70
51559;DHT22;61650;48.882;2.092;2022-08-01T02:29:15;18.80;73.80
51559;DHT22;61650;48.882;2.092;2022-08-01T02:31:45;18.80;73.70
51559;DHT22;61650;48.882;2.092;2022-08-01T02:34:17;18.80;73.80
51559;DHT22;61650;48.882;2.092;2022-08-01T02:36:44;18.80;73.80
51559;DHT22;61650;48.882;2.092;2022-08-01T02:39:13;18.80;73.70
51559;DHT22;61650;48.882;2.092;2022-08-01T02:41:45;18.80;73.80
51559;DHT22;61650;48.882;2.092;2022-08-01T02:44:24;18.80;73.60
51559;DHT22;61650;48.882;2.092;2022-08-01T02:46:56;18.90;73.50
51559;DHT22;61650;48.882;2.092;2022-08-01T02:49:24;18.90;73.30
51559;DHT22;61650;48.882;2.092;2022-08-01T02:51:53;18.90;73.30
51559;DHT22;61650;48.882;2.092;2022-08-01T02:54:20;18.90;73.30
51559;DHT22;61650;48.882;2.092;2022-08-01T02:56:48;19.00;73.10
51559;DHT22;61650;48.882;2.092;2022-08-01T02:59:18;19.00;73.10
51559;DHT22;61650;48.882;2.092;2022-08-01T03:01:45;19.10;73.10
51559;DHT22;61650;48.882;2.092;2022-08-01T03:04:12;19.10;73.10
51559;DHT22;61650;48.882;2.092;2022-08-01T03:06:38;19.20;72.80
51559;DHT22;61650;48.882;2.092;2022-08-01T03:09:04;19.30;72.50
51559;DHT22;61650;48.882;2.092;2022-08-01T03:11:32;19.30;72.20
51559;DHT22;61650;48.882;2.092;2022-08-01T03:14:03;19.40;72.20
51559;DHT22;61650;48.882;2.092;2022-08-01T03:16:31;19.30;72.40
51559;DHT22;61650;48.882;2.092;2022-08-01T03:19:00;19.30;72.50
51559;DHT22;61650;48.882;2.092;2022-08-01T03:21:28;19.40;72.50
51559;DHT22;61650;48.882;2.092;2022-08-01T03:23:57;19.40;72.40
51559;DHT22;61650;48.882;2.092;2022-08-01T03:26:27;19.40;72.40
51559;DHT22;61650;48.882;2.092;2022-08-01T03:28:57;19.40;72.40
51559;DHT22;61650;48.882;2.092;2022-08-01T03:31:25;19.40;72.30
51559;DHT22;61650;48.882;2.092;2022-08-01T03:33:51;19.40;72.30
51559;DHT22;61650;48.882;2.092;2022-08-01T03:36:21;19.40;72.40
51559;DHT22;61650;48.882;2.092;2022-08-01T03:38:50;19.40;72.20
51559;DHT22;61650;48.882;2.092;2022-08-01T03:41:19;19.50;72.00
51559;DHT22;61650;48.882;2.092;2022-08-01T03:44:03;19.50;71.80
51559;DHT22;61650;48.882;2.092;2022-08-01T03:46:35;19.60;71.90
51559;DHT22;61650;48.882;2.092;2022-08-01T03:49:07;19.50;71.80
51559;DHT22;61650;48.882;2.092;2022-08-01T03:51:37;19.60;71.80
51559;DHT22;61650;48.882;2.092;2022-08-01T03:54:04;19.60;71.50
51559;DHT22;61650;48.882;2.092;2022-08-01T03:56:31;19.60;71.50
51559;DHT22;61650;48.882;2.092;2022-08-01T03:58:59;19.60;71.50
51559;DHT22;61650;48.882;2.092;2022-08-01T04:01:26;19.60;71.60
51559;DHT22;61650;48.882;2.092;2022-08-01T04:03:52;19.60;71.60
51559;DHT22;61650;48.882;2.092;2022-08-01T04:06:18;19.60;71.70
51559;DHT22;61650;48.882;2.092;2022-08-01T04:08:43;19.70;71.70
51559;DHT22;61650;48.882;2.092;2022-08-01T04:11:21;19.70;71.60
51559;DHT22;61650;48.882;2.092;2022-08-01T04:13:47;19.70;71.70
51559;DHT22;61650;48.882;2.092;2022-08-01T04:16:13;19.70;71.70
51559;DHT22;61650;48.882;2.092;2022-08-01T04:18:39;19.70;71.70
51559;DHT22;61650;48.882;2.092;2022-08-01T04:21:04;19.70;71.60
51559;DHT22;61650;48.882;2.092;2022-08-01T04:23:30;19.80;71.60
51559;DHT22;61650;48.882;2.092;2022-08-01T04:25:57;19.70;71.60
51559;DHT22;61650;48.882;2.092;2022-08-01T04:28:24;19.70;71.60
51559;DHT22;61650;48.882;2.092;2022-08-01T04:30:53;19.80;71.50
51559;DHT22;61650;48.882;2.092;2022-08-01T04:33:19;19.80;71.50
51559;DHT22;61650;48.882;2.092;2022-08-01T04:35:46;19.80;71.50
51559;DHT22;61650;48.882;2.092;2022-08-01T04:38:15;19.80;71.60
51559;DHT22;61650;48.882;2.092;2022-08-01T04:40:44;19.70;71.80
51559;DHT22;61650;48.882;2.092;2022-08-01T04:43:11;19.70;71.90
51559;DHT22;61650;48.882;2.092;2022-08-01T04:45:38;19.70;72.10
51559;DHT22;61650;48.882;2.092;2022-08-01T04:48:05;19.70;72.10
51559;DHT22;61650;48.882;2.092;2022-08-01T04:50:32;19.60;72.30
51559;DHT22;61650;48.882;2.092;2022-08-01T04:52:57;19.50;72.50
51559;DHT22;61650;48.882;2.092;2022-08-01T04:55:23;19.40;72.80
51559;DHT22;61650;48.882;2.092;2022-08-01T04:57:49;19.40;73.00
51559;DHT22;61650;48.882;2.092;2022-08-01T05:00:15;19.30;72.80
51559;DHT22;61650;48.882;2.092;2022-08-01T05:02:42;19.30;73.10
51559;DHT22;61650;48.882;2.092;2022-08-01T05:05:08;19.30;72.90
51559;DHT22;61650;48.882;2.092;2022-08-01T05:07:35;19.20;73.30
51559;DHT22;61650;48.882;2.092;2022-08-01T05:10:05;19.20;73.00
51559;DHT22;61650;48.882;2.092;2022-08-01T05:12:30;19.20;73.30
51559;DHT22;61650;48.882;2.092;2022-08-01T05:14:58;19.20;73.00
51559;DHT22;61650;48.882;2.092;2022-08-01T05:17:23;19.30;72.80
51559;DHT22;61650;48.882;2.092;2022-08-01T05:19:49;19.40;72.70
51559;DHT22;61650;48.882;2.092;2022-08-01T05:22:14;19.40;72.60
51559;DHT22;61650;48.882;2.092;2022-08-01T05:24:40;19.40;72.80
51559;DHT22;61650;48.882;2.092;2022-08-01T05:27:06;19.40;73.10
51559;DHT22;61650;48.882;2.092;2022-08-01T05:29:35;19.40;72.70
51559;DHT22;61650;48.882;2.092;2022-08-01T05:32:01;19.50;72.30
51559;DHT22;61650;48.882;2.092;2022-08-01T05:34:27;19.60;72.10
51559;DHT22;61650;48.882;2.092;2022-08-01T05:36:53;19.60;72.20
51559;DHT22;61650;48.882;2.092;2022-08-01T05:39:19;19.60;72.20
51559;DHT22;61650;48.882;2.092;2022-08-01T05:41:44;19.50;72.50
51559;DHT22;61650;48.882;2.092;2022-08-01T05:44:10;19.50;72.50
51559;DHT22;61650;48.882;2.092;2022-08-01T05:46:36;19.60;72.30
51559;DHT22;61650;48.882;2.092;2022-08-01T05:49:03;19.60;72.10
51559;DHT22;61650;48.882;2.092;2022-08-01T05:51:29;19.70;71.80
51559;DHT22;61650;48.882;2.092;2022-08-01T05:53:55;19.80;71.80
51559;DHT22;61650;48.882;2.092;2022-08-01T05:56:21;19.70;71.80
51559;DHT22;61650;48.882;2.092;2022-08-01T05:58:48;19.80;71.90
51559;DHT22;61650;48.882;2.092;2022-08-01T06:01:14;19.80;71.70
51559;DHT22;61650;48.882;2.092;2022-08-01T06:03:40;19.90;71.40
51559;DHT22;61650;48.882;2.092;2022-08-01T06:06:06;19.90;71.20
51559;DHT22;61650;48.882;2.092;2022-08-01T06:08:31;19.90;71.30
51559;DHT22;61650;48.882;2.092;2022-08-01T06:10:57;19.90;71.30
51559;DHT22;61650;48.882;2.092;2022-08-01T06:13:23;20.10;71.00
51559;DHT22;61650;48.882;2.092;2022-08-01T06:15:49;20.10;70.70
51559;DHT22;61650;48.882;2.092;2022-08-01T06:18:15;20.00;70.70
51559;DHT22;61650;48.882;2.092;2022-08-01T06:20:41;19.90;70.90
51559;DHT22;61650;48.882;2.092;2022-08-01T06:23:06;20.00;70.60
51559;DHT22;61650;48.882;2.092;2022-08-01T06:25:32;19.90;70.50
51559;DHT22;61650;48.882;2.092;2022-08-01T06:27:58;20.00;70.60
51559;DHT22;61650;48.882;2.092;2022-08-01T06:30:24;20.10;70.30
51559;DHT22;61650;48.882;2.092;2022-08-01T06:32:50;20.20;70.00
51559;DHT22;61650;48.882;2.092;2022-08-01T06:35:15;20.20;70.00
51559;DHT22;61650;48.882;2.092;2022-08-01T06:37:41;20.20;69.90
51559;DHT22;61650;48.882;2.092;2022-08-01T06:40:09;20.20;69.70
51559;DHT22;61650;48.882;2.092;2022-08-01T06:42:35;20.20;69.70
51559;DHT22;61650;48.882;2.092;2022-08-01T06:45:05;20.20;69.80
51559;DHT22;61650;48.882;2.092;2022-08-01T06:47:31;20.30;69.70
51559;DHT22;61650;48.882;2.092;2022-08-01T06:49:57;20.30;69.40
51559;DHT22;61650;48.882;2.092;2022-08-01T06:52:22;20.30;69.40
51559;DHT22;61650;48.882;2.092;2022-08-01T06:54:48;20.30;69.70
51559;DHT22;61650;48.882;2.092;2022-08-01T06:57:13;20.30;69.50
51559;DHT22;61650;48.882;2.092;2022-08-01T06:59:39;20.20;69.30
51559;DHT22;61650;48.882;2.092;2022-08-01T07:02:05;20.20;69.50
51559;DHT22;61650;48.882;2.092;2022-08-01T07:04:31;20.30;69.40
51559;DHT22;61650;48.882;2.092;2022-08-01T07:06:57;20.30;69.20
51559;DHT22;61650;48.882;2.092;2022-08-01T07:09:23;20.30;69.20
51559;DHT22;61650;48.882;2.092;2022-08-01T07:11:48;20.20;69.00
51559;DHT22;61650;48.882;2.092;2022-08-01T07:14:15;20.20;69.40
51559;DHT22;61650;48.882;2.092;2022-08-01T07:16:41;20.20;69.40
51559;DHT22;61650;48.882;2.092;2022-08-01T07:19:07;20.30;69.30
51559;DHT22;61650;48.882;2.092;2022-08-01T07:21:33;20.40;69.00
51559;DHT22;61650;48.882;2.092;2022-08-01T07:23:58;20.40;68.90
51559;DHT22;61650;48.882;2.092;2022-08-01T07:26:24;20.50;69.00
51559;DHT22;61650;48.882;2.092;2022-08-01T07:28:50;20.50;68.80
51559;DHT22;61650;48.882;2.092;2022-08-01T07:31:15;20.50;68.80
51559;DHT22;61650;48.882;2.092;2022-08-01T07:33:41;20.40;68.80
51559;DHT22;61650;48.882;2.092;2022-08-01T07:36:07;20.40;69.00
51559;DHT22;61650;48.882;2.092;2022-08-01T07:38:32;20.50;68.80
51559;DHT22;61650;48.882;2.092;2022-08-01T07:40:58;20.50;68.90
51559;DHT22;61650;48.882;2.092;2022-08-01T07:43:23;20.60;68.70
51559;DHT22;61650;48.882;2.092;2022-08-01T07:45:49;20.60;68.40
51559;DHT22;61650;48.882;2.092;2022-08-01T07:48:14;20.70;68.30
51559;DHT22;61650;48.882;2.092;2022-08-01T07:50:40;20.80;67.90
51559;DHT22;61650;48.882;2.092;2022-08-01T07:53:06;20.80;67.80
51559;DHT22;61650;48.882;2.092;2022-08-01T07:55:31;20.70;68.10
51559;DHT22;61650;48.882;2.092;2022-08-01T07:57:57;20.80;67.80
51559;DHT22;61650;48.882;2.092;2022-08-01T08:00:23;20.80;68.10
51559;DHT22;61650;48.882;2.092;2022-08-01T08:02:49;20.90;67.80
51559;DHT22;61650;48.882;2.092;2022-08-01T08:05:14;21.10;67.40
51559;DHT22;61650;48.882;2.092;2022-08-01T08:07:40;21.00;67.40
51559;DHT22;61650;48.882;2.092;2022-08-01T08:10:06;21.20;67.30
51559;DHT22;61650;48.882;2.092;2022-08-01T08:12:32;21.30;67.00
51559;DHT22;61650;48.882;2.092;2022-08-01T08:14:57;21.40;66.70
51559;DHT22;61650;48.882;2.092;2022-08-01T08:17:27;21.50;66.30
51559;DHT22;61650;48.882;2.092;2022-08-01T08:19:52;21.50;65.50
51559;DHT22;61650;48.882;2.092;2022-08-01T08:22:18;21.50;65.90
51559;DHT22;61650;48.882;2.092;2022-08-01T08:24:44;21.60;65.70
51559;DHT22;61650;48.882;2.092;2022-08-01T08:27:09;21.50;65.30
51559;DHT22;61650;48.882;2.092;2022-08-01T08:29:35;21.40;65.10
51559;DHT22;61650;48.882;2.092;2022-08-01T08:32:01;21.60;65.00
51559;DHT22;61650;48.882;2.092;2022-08-01T08:34:28;21.80;64.30
51559;DHT22;61650;48.882;2.092;2022-08-01T08:36:54;21.70;64.10
51559;DHT22;61650;48.882;2.092;2022-08-01T08:39:21;21.80;64.70
51559;DHT22;61650;48.882;2.092;2022-08-01T08:41:47;21.90;64.50
51559;DHT22;61650;48.882;2.092;2022-08-01T08:44:14;22.00;63.90
51559;DHT22;61650;48.882;2.092;2022-08-01T08:46:44;22.10;63.30
51559;DHT22;61650;48.882;2.092;2022-08-01T08:49:12;22.00;63.00
51559;DHT22;61650;48.882;2.092;2022-08-01T08:51:39;22.00;63.90
51559;DHT22;61650;48.882;2.092;2022-08-01T08:54:06;22.00;63.70
51559;DHT22;61650;48.882;2.092;2022-08-01T08:56:34;21.80;63.60
51559;DHT22;61650;48.882;2.092;2022-08-01T08:59:01;22.00;63.50
51559;DHT22;61650;48.882;2.092;2022-08-01T09:01:27;22.10;63.10
51559;DHT22;61650;48.882;2.092;2022-08-01T09:03:53;22.30;62.30
51559;DHT22;61650;48.882;2.092;2022-08-01T09:06:19;22.40;61.90
51559;DHT22;61650;48.882;2.092;2022-08-01T09:08:45;22.40;61.90
51559;DHT22;61650;48.882;2.092;2022-08-01T09:11:11;22.30;61.80
51559;DHT22;61650;48.882;2.092;2022-08-01T09:13:36;22.10;62.20
51559;DHT22;61650;48.882;2.092;2022-08-01T09:16:02;22.00;62.40
51559;DHT22;61650;48.882;2.092;2022-08-01T09:23:39;21.90;63.00
51559;DHT22;61650;48.882;2.092;2022-08-01T09:26:11;21.80;63.40
51559;DHT22;61650;48.882;2.092;2022-08-01T09:28:38;21.70;63.50
51559;DHT22;61650;48.882;2.092;2022-08-01T09:31:15;21.70;63.80
51559;DHT22;61650;48.882;2.092;2022-08-01T09:36:16;21.80;63.80
51559;DHT22;61650;48.882;2.092;2022-08-01T09:38:41;21.80;63.80
51559;DHT22;61650;48.882;2.092;2022-08-01T09:41:07;21.70;63.60
51559;DHT22;61650;48.882;2.092;2022-08-01T09:43:33;21.80;63.70
51559;DHT22;61650;48.882;2.092;2022-08-01T09:46:03;21.80;63.70
51559;DHT22;61650;48.882;2.092;2022-08-01T09:48:29;21.90;63.60
51559;DHT22;61650;48.882;2.092;2022-08-01T09:50:58;22.00;63.20
51559;DHT22;61650;48.882;2.092;2022-08-01T09:53:24;22.30;62.90
51559;DHT22;61650;48.882;2.092;2022-08-01T09:55:50;22.40;61.90
51559;DHT22;61650;48.882;2.092;2022-08-01T09:58:17;22.40;62.30
51559;DHT22;61650;48.882;2.092;2022-08-01T10:00:58;22.30;62.70
51559;DHT22;61650;48.882;2.092;2022-08-01T10:03:26;22.40;62.80
51559;DHT22;61650;48.882;2.092;2022-08-01T10:05:52;22.50;62.40
51559;DHT22;61650;48.882;2.092;2022-08-01T10:08:23;22.80;61.70
51559;DHT22;61650;48.882;2.092;2022-08-01T10:11:16;22.80;60.30
51559;DHT22;61650;48.882;2.092;2022-08-01T10:13:42;23.00;60.10
51559;DHT22;61650;48.882;2.092;2022-08-01T10:16:08;23.20;59.30
51559;DHT22;61650;48.882;2.092;2022-08-01T10:18:35;23.30;59.30
51559;DHT22;61650;48.882;2.092;2022-08-01T10:21:03;23.40;59.90
51559;DHT22;61650;48.882;2.092;2022-08-01T10:23:34;23.60;58.70
51559;DHT22;61650;48.882;2.092;2022-08-01T10:26:01;23.30;59.00
51559;DHT22;61650;48.882;2.092;2022-08-01T10:28:30;23.30;59.70
51559;DHT22;61650;48.882;2.092;2022-08-01T10:30:57;23.40;60.00
51559;DHT22;61650;48.882;2.092;2022-08-01T10:33:23;23.40;60.00
51559;DHT22;61650;48.882;2.092;2022-08-01T10:35:50;23.30;60.20
51559;DHT22;61650;48.882;2.092;2022-08-01T10:38:16;23.20;60.60
51559;DHT22;61650;48.882;2.092;2022-08-01T10:40:43;23.20;59.90
51559;DHT22;61650;48.882;2.092;2022-08-01T10:43:12;23.10;59.60
51559;DHT22;61650;48.882;2.092;2022-08-01T10:45:41;22.90;59.80
51559;DHT22;61650;48.882;2.092;2022-08-01T10:48:31;22.90;60.30
51559;DHT22;61650;48.882;2.092;2022-08-01T10:51:04;23.00;59.60
51559;DHT22;61650;48.882;2.092;2022-08-01T10:53:31;23.10;58.90
51559;DHT22;61650;48.882;2.092;2022-08-01T10:56:03;23.20;59.00
51559;DHT22;61650;48.882;2.092;2022-08-01T10:58:33;23.40;59.10
51559;DHT22;61650;48.882;2.092;2022-08-01T11:01:24;23.60;59.10
51559;DHT22;61650;48.882;2.092;2022-08-01T11:04:02;23.90;58.60
51559;DHT22;61650;48.882;2.092;2022-08-01T11:09:02;23.90;58.30
51559;DHT22;61650;48.882;2.092;2022-08-01T11:11:29;23.70;57.90
51559;DHT22;61650;48.882;2.092;2022-08-01T11:14:04;23.60;58.70
51559;DHT22;61650;48.882;2.092;2022-08-01T11:16:36;23.70;58.80
51559;DHT22;61650;48.882;2.092;2022-08-01T11:19:03;23.70;58.90
51559;DHT22;61650;48.882;2.092;2022-08-01T11:27:19;23.70;57.80
51559;DHT22;61650;48.882;2.092;2022-08-01T11:32:55;23.90;55.70
51559;DHT22;61650;48.882;2.092;2022-08-01T11:35:22;23.90;56.50
51559;DHT22;61650;48.882;2.092;2022-08-01T11:37:55;23.90;56.80
51559;DHT22;61650;48.882;2.092;2022-08-01T11:40:25;24.00;57.30
51559;DHT22;61650;48.882;2.092;2022-08-01T11:45:54;24.10;56.10
51559;DHT22;61650;48.882;2.092;2022-08-01T11:48:25;24.40;56.00
51559;DHT22;61650;48.882;2.092;2022-08-01T11:50:52;24.80;55.00
51559;DHT22;61650;48.882;2.092;2022-08-01T11:53:18;25.10;54.40
51559;DHT22;61650;48.882;2.092;2022-08-01T11:55:51;25.30;54.30
51559;DHT22;61650;48.882;2.092;2022-08-01T11:58:26;25.10;53.10
51559;DHT22;61650;48.882;2.092;2022-08-01T12:00:52;24.90;54.30
51559;DHT22;61650;48.882;2.092;2022-08-01T12:03:25;24.70;55.10
51559;DHT22;61650;48.882;2.092;2022-08-01T12:05:53;24.70;55.40
51559;DHT22;61650;48.882;2.092;2022-08-01T12:08:32;24.50;55.90
51559;DHT22;61650;48.882;2.092;2022-08-01T12:11:04;24.50;56.10
51559;DHT22;61650;48.882;2.092;2022-08-01T12:13:42;24.40;56.10
51559;DHT22;61650;48.882;2.092;2022-08-01T12:16:11;24.40;55.60
51559;DHT22;61650;48.882;2.092;2022-08-01T12:18:43;24.40;56.00
51559;DHT22;61650;48.882;2.092;2022-08-01T12:21:09;24.40;55.70
51559;DHT22;61650;48.882;2.092;2022-08-01T12:23:35;24.20;56.10
51559;DHT22;61650;48.882;2.092;2022-08-01T12:26:01;24.20;56.30
51559;DHT22;61650;48.882;2.092;2022-08-01T12:28:27;24.10;56.50
51559;DHT22;61650;48.882;2.092;2022-08-01T12:30:52;24.10;56.70
51559;DHT22;61650;48.882;2.092;2022-08-01T12:33:19;24.00;56.40
51559;DHT22;61650;48.882;2.092;2022-08-01T12:35:46;24.00;56.40
51559;DHT22;61650;48.882;2.092;2022-08-01T12:38:17;24.00;56.20
51559;DHT22;61650;48.882;2.092;2022-08-01T12:40:45;24.10;56.20
51559;DHT22;61650;48.882;2.092;2022-08-01T12:43:19;24.30;56.20
51559;DHT22;61650;48.882;2.092;2022-08-01T12:45:46;24.40;55.00
51559;DHT22;61650;48.882;2.092;2022-08-01T12:48:15;24.40;53.90
51559;DHT22;61650;48.882;2.092;2022-08-01T12:50:47;24.60;54.00
51559;DHT22;61650;48.882;2.092;2022-08-01T12:53:14;25.60;53.00
51559;DHT22;61650;48.882;2.092;2022-08-01T12:55:49;26.40;51.60
51559;DHT22;61650;48.882;2.092;2022-08-01T12:58:16;27.00;50.10
51559;DHT22;61650;48.882;2.092;2022-08-01T13:00:44;27.50;50.10
51559;DHT22;61650;48.882;2.092;2022-08-01T13:03:18;27.10;48.60
51559;DHT22;61650;48.882;2.092;2022-08-01T13:05:54;26.60;49.60
51559;DHT22;61650;48.882;2.092;2022-08-01T13:08:31;27.00;47.60
51559;DHT22;61650;48.882;2.092;2022-08-01T13:11:08;27.10;46.30
51559;DHT22;61650;48.882;2.092;2022-08-01T13:13:39;27.60;47.10
51559;DHT22;61650;48.882;2.092;2022-08-01T13:16:06;29.50;44.70
51559;DHT22;61650;48.882;2.092;2022-08-01T13:18:33;30.50;41.90
51559;DHT22;61650;48.882;2.092;2022-08-01T13:21:18;30.70;42.50
51559;DHT22;61650;48.882;2.092;2022-08-01T13:24:09;30.20;41.50
51559;DHT22;61650;48.882;2.092;2022-08-01T13:29:10;30.10;39.20
51559;DHT22;61650;48.882;2.092;2022-08-01T13:31:37;30.10;38.80
51559;DHT22;61650;48.882;2.092;2022-08-01T13:34:03;29.70;41.60
51559;DHT22;61650;48.882;2.092;2022-08-01T13:36:29;29.20;41.80
51559;DHT22;61650;48.882;2.092;2022-08-01T13:38:59;28.50;41.20
51559;DHT22;61650;48.882;2.092;2022-08-01T13:41:44;27.70;41.90
51559;DHT22;61650;48.882;2.092;2022-08-01T13:44:10;27.50;43.80
51559;DHT22;61650;48.882;2.092;2022-08-01T13:46:37;27.50;43.30
51559;DHT22;61650;48.882;2.092;2022-08-01T13:49:04;27.60;44.00
51559;DHT22;61650;48.882;2.092;2022-08-01T13:51:30;27.40;43.20
51559;DHT22;61650;48.882;2.092;2022-08-01T13:53:56;26.50;44.20
51559;DHT22;61650;48.882;2.092;2022-08-01T13:56:22;26.40;44.70
51559;DHT22;61650;48.882;2.092;2022-08-01T13:58:48;26.50;44.30
51559;DHT22;61650;48.882;2.092;2022-08-01T14:01:14;27.00;43.80
51559;DHT22;61650;48.882;2.092;2022-08-01T14:03:39;27.70;42.70
51559;DHT22;61650;48.882;2.092;2022-08-01T14:06:06;28.00;41.60
51559;DHT22;61650;48.882;2.092;2022-08-01T14:08:31;28.20;39.80
51559;DHT22;61650;48.882;2.092;2022-08-01T14:10:57;28.10;39.40
51559;DHT22;61650;48.882;2.092;2022-08-01T14:13:24;27.80;40.70
51559;DHT22;61650;48.882;2.092;2022-08-01T14:15:51;27.70;41.20
51559;DHT22;61650;48.882;2.092;2022-08-01T14:18:16;27.90;41.30
51559;DHT22;61650;48.882;2.092;2022-08-01T14:20:42;27.90;41.20
51559;DHT22;61650;48.882;2.092;2022-08-01T14:23:08;27.90;41.30
51559;DHT22;61650;48.882;2.092;2022-08-01T14:25:36;27.70;41.90
51559;DHT22;61650;48.882;2.092;2022-08-01T14:28:02;27.40;42.60
51559;DHT22;61650;48.882;2.092;2022-08-01T14:30:27;27.20;42.60
51559;DHT22;61650;48.882;2.092;2022-08-01T14:32:53;27.10;42.80
51559;DHT22;61650;48.882;2.092;2022-08-01T14:35:19;26.90;43.30
51559;DHT22;61650;48.882;2.092;2022-08-01T14:37:44;26.80;43.20
51559;DHT22;61650;48.882;2.092;2022-08-01T14:40:10;26.60;43.80
51559;DHT22;61650;48.882;2.092;2022-08-01T14:42:37;26.40;44.10
51559;DHT22;61650;48.882;2.092;2022-08-01T14:45:06;26.30;44.50
51559;DHT22;61650;48.882;2.092;2022-08-01T14:47:35;26.30;45.00
51559;DHT22;61650;48.882;2.092;2022-08-01T14:50:02;26.20;45.10
51559;DHT22;61650;48.882;2.092;2022-08-01T14:52:28;26.20;45.30
51559;DHT22;61650;48.882;2.092;2022-08-01T14:54:53;26.30;45.70
51559;DHT22;61650;48.882;2.092;2022-08-01T14:57:19;26.20;45.80
51559;DHT22;61650;48.882;2.092;2022-08-01T14:59:45;26.30;46.40
51559;DHT22;61650;48.882;2.092;2022-08-01T15:02:11;26.30;46.30
51559;DHT22;61650;48.882;2.092;2022-08-01T15:04:38;26.30;46.40
51559;DHT22;61650;48.882;2.092;2022-08-01T15:07:03;26.30;46.20
51559;DHT22;61650;48.882;2.092;2022-08-01T15:09:29;26.30;46.40
51559;DHT22;61650;48.882;2.092;2022-08-01T15:11:54;26.30;46.50
51559;DHT22;61650;48.882;2.092;2022-08-01T15:14:20;26.20;46.60
51559;DHT22;61650;48.882;2.092;2022-08-01T15:17:04;26.20;46.60
51559;DHT22;61650;48.882;2.092;2022-08-01T15:19:30;26.10;46.90
51559;DHT22;61650;48.882;2.092;2022-08-01T15:21:56;26.10;46.80
51559;DHT22;61650;48.882;2.092;2022-08-01T15:24:21;26.10;46.90
51559;DHT22;61650;48.882;2.092;2022-08-01T15:26:47;26.10;46.70
51559;DHT22;61650;48.882;2.092;2022-08-01T15:29:12;26.10;46.80
51559;DHT22;61650;48.882;2.092;2022-08-01T15:31:38;26.10;46.80
51559;DHT22;61650;48.882;2.092;2022-08-01T15:34:04;26.10;46.90
51559;DHT22;61650;48.882;2.092;2022-08-01T15:36:29;26.10;46.90
51559;DHT22;61650;48.882;2.092;2022-08-01T15:38:55;26.10;47.00
51559;DHT22;61650;48.882;2.092;2022-08-01T15:41:21;26.10;47.10
51559;DHT22;61650;48.882;2.092;2022-08-01T15:43:46;26.20;47.00
51559;DHT22;61650;48.882;2.092;2022-08-01T15:46:12;26.20;47.00
51559;DHT22;61650;48.882;2.092;2022-08-01T15:48:37;26.30;47.00
51559;DHT22;61650;48.882;2.092;2022-08-01T15:51:03;26.30;46.80
51559;DHT22;61650;48.882;2.092;2022-08-01T15:53:28;26.30;46.90
51559;DHT22;61650;48.882;2.092;2022-08-01T15:55:54;26.30;46.50
51559;DHT22;61650;48.882;2.092;2022-08-01T15:58:20;26.50;46.30
51559;DHT22;61650;48.882;2.092;2022-08-01T16:00:45;26.60;46.40